createdAt,value
2017-05-11T04:40:18.207Z,40.40
2017-05-11T04:41:14.301Z,is
2017-05-11T04:42:14.734Z,is
2017-05-11T04:43:15.099Z,40.50
2017-05-11T04:44:19.791Z,40.40
2017-05-11T04:45:15.617Z,40.60
2017-05-11T04:46:15.250Z,40.30
2017-05-11T04:47:16.583Z,40.40
2017-05-11T04:48:14.761Z,40.20
2017-05-11T04:49:13.770Z,40.40
2017-05-11T04:50:15.707Z,40.70
2017-05-11T04:51:14.490Z,40.50
2017-05-11T04:52:16.019Z,40.50
2017-05-11T04:53:15.740Z,40.40
2017-05-11T04:54:13.994Z,40.30
2017-05-11T04:55:14.736Z,40.50
2017-05-11T04:56:16.644Z,40.40
2017-05-11T04:57:17.307Z,39.40
2017-05-11T04:58:15.181Z,40.50
2017-05-11T04:59:14.299Z,40.50
2017-05-11T05:00:15.885Z,40.30
2017-05-11T05:01:14.142Z,40.10
2017-05-11T05:02:17.616Z,40.30
2017-05-11T05:03:14.683Z,40.20
2017-05-11T05:04:14.680Z,40.40
2017-05-11T05:05:15.235Z,40.60
2017-05-11T05:06:14.611Z,40.30
2017-05-11T05:07:14.806Z,40.20
2017-05-11T05:08:14.614Z,40.40
2017-05-11T05:09:14.134Z,40.30
2017-05-11T05:10:14.111Z,40.30
2017-05-11T05:11:15.328Z,40.30
2017-05-11T05:12:14.622Z,40.30
2017-05-11T05:13:14.648Z,40.40
2017-05-11T05:14:14.801Z,40.20
2017-05-11T05:15:12.844Z,is
2017-05-11T05:16:14.191Z,40.50
2017-05-11T05:17:16.308Z,39.70
2017-05-11T05:18:14.133Z,40.60
2017-05-11T05:19:13.912Z,is
2017-05-11T05:20:13.476Z,is
2017-05-11T05:21:13.897Z,41.00
2017-05-11T05:22:14.364Z,39.60
2017-05-11T05:23:15.634Z,40.50
2017-05-11T05:24:16.349Z,40.40
2017-05-11T05:25:15.752Z,40.70
2017-05-11T05:26:17.229Z,40.40
2017-05-11T05:27:14.265Z,40.50
2017-05-11T05:28:17.739Z,40.50
2017-05-11T05:29:15.918Z,40.00
2017-05-11T05:30:15.117Z,39.80
2017-05-11T05:31:13.939Z,39.50
2017-05-11T05:32:14.724Z,39.40
2017-05-11T05:33:14.391Z,39.50
2017-05-11T05:34:16.695Z,39.50
2017-05-11T05:35:15.231Z,39.50
2017-05-11T05:36:15.047Z,39.40
2017-05-11T05:37:15.919Z,39.20
2017-05-11T05:38:15.591Z,39.20
2017-05-11T05:39:16.374Z,39.00
2017-05-11T05:40:14.398Z,38.90
2017-05-11T05:41:13.971Z,is
2017-05-11T05:42:13.809Z,38.80
2017-05-11T05:43:16.650Z,38.90
2017-05-11T05:44:17.666Z,39.10
2017-05-11T05:45:15.249Z,38.90
2017-05-11T05:46:14.017Z,39.00
2017-05-11T05:47:15.887Z,39.20
2017-05-11T05:48:14.138Z,39.00
2017-05-11T05:49:14.822Z,is
2017-05-11T05:50:15.833Z,39.10
2017-05-11T05:51:15.462Z,39.20
2017-05-11T05:52:14.968Z,39.20
2017-05-11T05:53:14.749Z,39.00
2017-05-11T05:54:13.270Z,is
2017-05-11T05:55:15.568Z,39.40
2017-05-11T05:56:14.329Z,39.40
2017-05-11T05:57:15.770Z,39.50
2017-05-11T05:58:14.295Z,39.30
2017-05-11T05:59:15.147Z,38.80
2017-05-11T06:00:14.572Z,39.30
2017-05-11T06:01:14.957Z,38.90
2017-05-11T06:02:14.154Z,39.20
2017-05-11T06:03:14.360Z,38.80
2017-05-11T06:04:15.598Z,39.00
2017-05-11T06:05:15.392Z,38.80
2017-05-11T06:06:16.426Z,39.10
2017-05-11T06:07:14.674Z,38.80
2017-05-11T06:08:16.995Z,39.00
2017-05-11T06:09:14.033Z,is
2017-05-11T06:10:16.422Z,39.10
2017-05-11T06:11:14.061Z,39.10
2017-05-11T06:12:13.942Z,38.70
2017-05-11T06:13:14.789Z,38.70
2017-05-11T06:14:13.770Z,is
2017-05-11T06:15:15.027Z,38.80
2017-05-11T06:16:16.502Z,38.50
2017-05-11T06:17:14.553Z,38.40
2017-05-11T06:18:15.577Z,38.90
2017-05-11T06:19:15.020Z,38.80
2017-05-11T06:20:14.580Z,38.70
2017-05-11T06:21:14.749Z,38.80
2017-05-11T06:22:13.917Z,38.70
2017-05-11T06:23:16.648Z,39.00
2017-05-11T06:24:15.264Z,38.80
2017-05-11T06:25:16.804Z,38.50
2017-05-11T06:26:14.781Z,38.60
2017-05-11T06:27:14.584Z,38.50
2017-05-11T06:28:15.349Z,38.60
2017-05-11T06:29:15.317Z,38.80
2017-05-11T06:30:13.931Z,38.70
2017-05-11T06:31:17.196Z,38.60
2017-05-11T06:32:15.835Z,38.50
2017-05-11T06:33:14.047Z,38.50
2017-05-11T06:34:15.263Z,38.50
2017-05-11T06:35:14.770Z,38.70
2017-05-11T06:36:14.638Z,38.40
2017-05-11T06:37:14.319Z,38.50
2017-05-11T06:38:14.147Z,38.30
2017-05-11T06:39:14.270Z,38.20
2017-05-11T06:40:16.303Z,38.10
2017-05-11T06:41:14.867Z,37.90
2017-05-11T06:42:15.706Z,38.20
2017-05-11T06:43:14.655Z,38.30
2017-05-11T06:44:13.794Z,38.00
2017-05-11T06:45:13.784Z,38.00
2017-05-11T06:46:18.669Z,38.10
2017-05-11T06:47:15.377Z,37.60
2017-05-11T06:48:14.621Z,37.40
2017-05-11T06:49:14.496Z,37.90
2017-05-11T06:50:15.201Z,37.60
2017-05-11T06:51:16.995Z,37.70
2017-05-11T06:52:14.056Z,37.50
2017-05-11T06:53:15.442Z,37.30
2017-05-11T06:54:14.349Z,37.10
2017-05-11T06:55:13.768Z,is
2017-05-11T06:56:14.481Z,37.70
2017-05-11T06:57:15.692Z,37.40
2017-05-11T06:58:13.893Z,37.20
2017-05-11T06:59:15.767Z,37.60
2017-05-11T07:00:14.701Z,36.90
2017-05-11T07:01:14.134Z,37.00
2017-05-11T07:02:14.707Z,37.10
2017-05-11T07:03:15.900Z,37.40
2017-05-11T07:04:12.546Z,is
2017-05-11T07:05:14.676Z,37.00
2017-05-11T07:06:13.906Z,37.40
2017-05-11T07:07:14.951Z,37.10
2017-05-11T07:08:14.277Z,36.90
2017-05-11T07:09:17.201Z,36.50
2017-05-11T07:10:15.509Z,36.70
2017-05-11T07:11:15.370Z,36.70
2017-05-11T07:12:16.429Z,36.50
2017-05-11T07:13:15.346Z,36.70
2017-05-11T07:14:14.262Z,36.50
2017-05-11T07:15:15.820Z,36.40
2017-05-11T07:16:14.441Z,36.40
2017-05-11T07:17:11.903Z,is
2017-05-11T07:18:11.443Z,is
2017-05-11T07:19:14.648Z,36.70
2017-05-11T07:20:15.068Z,36.50
2017-05-11T07:21:14.662Z,36.70
2017-05-11T07:22:15.265Z,36.50
2017-05-11T07:23:14.528Z,35.80
2017-05-11T07:24:17.094Z,is
2017-05-11T07:25:14.407Z,35.80
2017-05-11T07:26:15.303Z,36.10
2017-05-11T07:27:17.289Z,36.40
2017-05-11T07:28:14.928Z,36.20
2017-05-11T07:29:14.333Z,36.30
2017-05-11T07:30:14.653Z,36.20
2017-05-11T07:31:15.403Z,36.50
2017-05-11T07:32:14.650Z,36.00
2017-05-11T07:33:14.277Z,36.00
2017-05-11T07:34:16.378Z,36.10
2017-05-11T07:35:16.204Z,36.30
2017-05-11T07:36:14.386Z,36.50
2017-05-11T07:37:17.831Z,36.60
2017-05-11T07:38:14.257Z,36.50
2017-05-11T07:39:13.222Z,36.50
2017-05-11T07:40:14.617Z,36.40
2017-05-11T07:41:14.840Z,36.10
2017-05-11T07:42:16.311Z,36.20
2017-05-11T07:43:16.993Z,36.10
2017-05-11T07:44:14.615Z,36.10
2017-05-11T07:45:13.377Z,is
2017-05-11T07:46:16.988Z,35.90
2017-05-11T07:47:15.098Z,35.90
2017-05-11T07:48:14.115Z,35.60
2017-05-11T07:49:14.824Z,36.70
2017-05-11T07:50:14.668Z,35.90
2017-05-11T07:51:14.964Z,35.60
2017-05-11T07:52:14.268Z,35.30
2017-05-11T07:53:15.631Z,35.80
2017-05-11T07:54:14.543Z,35.40
2017-05-11T07:55:16.327Z,36.10
2017-05-11T07:56:14.903Z,36.00
2017-05-11T07:57:15.567Z,35.80
2017-05-11T07:58:16.982Z,34.90
2017-05-11T07:59:16.796Z,36.00
2017-05-11T08:00:16.929Z,35.70
2017-05-11T08:01:15.385Z,35.50
2017-05-11T08:02:14.633Z,36.00
2017-05-11T08:03:15.482Z,35.90
2017-05-11T08:04:19.196Z,35.70
2017-05-11T08:05:15.204Z,35.70
2017-05-11T08:06:15.195Z,35.70
2017-05-11T08:07:15.222Z,35.50
2017-05-11T08:08:13.987Z,35.40
2017-05-11T08:09:16.009Z,35.70
2017-05-11T08:10:15.220Z,36.00
2017-05-11T08:11:14.609Z,35.90
2017-05-11T08:12:16.960Z,35.90
2017-05-11T08:13:14.655Z,35.50
2017-05-11T08:14:14.624Z,34.80
2017-05-11T08:15:16.170Z,34.70
2017-05-11T08:16:14.625Z,35.40
2017-05-11T08:17:15.142Z,34.50
2017-05-11T08:18:14.949Z,34.90
2017-05-11T08:19:15.585Z,34.60
2017-05-11T08:20:16.502Z,34.60
2017-05-11T08:21:16.554Z,34.60
2017-05-11T08:22:16.022Z,33.90
2017-05-11T08:23:14.828Z,34.00
2017-05-11T08:24:15.168Z,34.70
2017-05-11T08:25:15.047Z,34.60
2017-05-11T08:26:13.126Z,34.60
2017-05-11T08:27:16.784Z,35.10
2017-05-11T08:28:14.606Z,35.40
2017-05-11T08:29:17.066Z,34.80
2017-05-11T08:30:14.887Z,34.70
2017-05-11T08:31:14.760Z,34.60
2017-05-11T08:32:15.739Z,34.80
2017-05-11T08:33:14.455Z,34.60
2017-05-11T08:34:13.158Z,34.60
2017-05-11T08:35:13.975Z,is
2017-05-11T08:36:14.659Z,34.60
2017-05-11T08:37:14.812Z,34.20
2017-05-11T08:38:17.735Z,34.70
2017-05-11T08:39:15.854Z,34.50
2017-05-11T08:40:17.745Z,33.00
2017-05-11T08:41:15.108Z,32.80
2017-05-11T08:42:16.165Z,34.40
2017-05-11T08:43:15.676Z,34.70
2017-05-11T08:44:14.583Z,34.60
2017-05-11T08:45:19.108Z,34.90
2017-05-11T08:46:13.992Z,34.60
2017-05-11T08:47:14.658Z,34.60
2017-05-11T08:48:14.463Z,34.70
2017-05-11T08:49:16.575Z,34.80
2017-05-11T08:50:15.906Z,34.70
2017-05-11T08:51:15.608Z,34.90
2017-05-11T08:52:14.695Z,34.80
2017-05-11T08:53:14.871Z,35.30
2017-05-11T08:54:13.248Z,35.00
2017-05-11T08:55:16.587Z,34.00
2017-05-11T08:56:14.233Z,34.90
2017-05-11T08:57:16.059Z,35.20
2017-05-11T08:58:15.512Z,34.90
2017-05-11T08:59:14.799Z,35.10
2017-05-11T09:00:14.979Z,35.50
2017-05-11T09:01:14.858Z,35.20
2017-05-11T09:02:14.328Z,35.50
2017-05-11T09:03:15.446Z,35.40
2017-05-11T09:04:14.138Z,35.60
2017-05-11T09:05:14.426Z,35.50
2017-05-11T09:06:14.313Z,35.70
2017-05-11T09:07:14.614Z,35.60
2017-05-11T09:08:15.511Z,35.80
2017-05-11T09:09:13.734Z,is
2017-05-11T09:10:14.258Z,35.80
2017-05-11T09:11:17.565Z,36.00
2017-05-11T09:12:16.228Z,35.00
2017-05-11T09:13:15.885Z,36.10
2017-05-11T09:14:14.702Z,36.20
2017-05-11T09:15:15.337Z,36.00
2017-05-11T09:16:15.404Z,36.10
2017-05-11T09:17:17.393Z,36.20
2017-05-11T09:18:15.705Z,36.30
2017-05-11T09:19:15.752Z,36.30
2017-05-11T09:20:12.439Z,is
2017-05-11T09:21:15.138Z,35.90
2017-05-11T09:22:16.562Z,36.30
2017-05-11T09:23:14.488Z,36.40
2017-05-11T09:24:15.541Z,36.40
2017-05-11T09:25:14.340Z,36.40
2017-05-11T09:26:14.547Z,36.50
2017-05-11T09:27:15.517Z,36.50
2017-05-11T09:28:14.745Z,36.40
2017-05-11T09:29:15.331Z,36.60
2017-05-11T09:30:21.155Z,36.60
2017-05-11T09:31:14.965Z,36.70
2017-05-11T09:32:13.282Z,36.60
2017-05-11T09:33:14.388Z,36.70
2017-05-11T09:34:14.745Z,is
2017-05-11T09:35:14.364Z,36.70
2017-05-11T09:36:15.060Z,36.90
2017-05-11T09:37:14.037Z,is
2017-05-11T09:38:15.785Z,35.00
2017-05-11T09:39:14.455Z,35.30
2017-05-11T09:40:17.293Z,35.60
2017-05-11T09:41:16.627Z,35.60
2017-05-11T09:42:14.745Z,35.60
2017-05-11T09:43:12.268Z,is
2017-05-11T09:44:15.218Z,35.60
2017-05-11T09:45:15.427Z,35.30
2017-05-11T09:46:14.869Z,34.80
2017-05-11T09:47:15.855Z,34.80
2017-05-11T09:48:16.203Z,33.90
2017-05-11T09:49:15.962Z,34.40
2017-05-11T09:50:14.482Z,34.80
2017-05-11T09:51:15.343Z,34.90
2017-05-11T09:52:15.608Z,34.60
2017-05-11T09:53:16.928Z,34.10
2017-05-11T09:54:13.451Z,is
2017-05-11T09:55:16.136Z,is
2017-05-11T09:56:15.596Z,33.50
2017-05-11T09:57:15.149Z,33.30
2017-05-11T09:58:14.433Z,32.90
2017-05-11T09:59:14.988Z,33.20
2017-05-11T10:00:14.149Z,is
2017-05-11T10:01:14.272Z,33.10
2017-05-11T10:02:15.476Z,32.20
2017-05-11T10:03:15.042Z,32.70
2017-05-11T10:04:14.512Z,33.00
2017-05-11T10:05:14.301Z,31.90
2017-05-11T10:06:16.525Z,32.00
2017-05-11T10:07:15.093Z,32.70
2017-05-11T10:08:14.611Z,32.10
2017-05-11T10:09:15.303Z,32.30
2017-05-11T10:10:16.140Z,31.90
2017-05-11T10:11:14.436Z,32.00
2017-05-11T10:12:13.388Z,is
2017-05-11T10:13:14.685Z,30.60
2017-05-11T10:14:14.512Z,31.00
2017-05-11T10:15:16.381Z,31.30
2017-05-11T10:16:14.705Z,30.30
2017-05-11T10:17:15.599Z,is
2017-05-11T10:18:13.901Z,30.40
2017-05-11T10:19:16.013Z,30.60
2017-05-11T10:20:15.374Z,29.10
2017-05-11T10:21:14.652Z,29.50
2017-05-11T10:22:16.415Z,29.00
2017-05-11T10:23:15.584Z,29.10
2017-05-11T10:24:14.441Z,29.00
2017-05-11T10:25:14.315Z,29.10
2017-05-11T10:26:14.634Z,29.40
2017-05-11T10:27:14.783Z,29.00
2017-05-11T10:28:14.064Z,29.90
2017-05-11T10:29:14.393Z,is
2017-05-11T10:30:14.884Z,29.90
2017-05-11T10:31:15.964Z,29.40
2017-05-11T10:32:14.133Z,30.00
2017-05-11T10:33:14.415Z,32.30
2017-05-11T10:34:15.002Z,33.50
2017-05-11T10:35:15.645Z,33.00
2017-05-11T10:36:15.226Z,32.60
2017-05-11T10:37:14.365Z,32.50
2017-05-11T10:38:15.465Z,31.00
2017-05-11T10:39:16.825Z,29.90
2017-05-11T10:40:15.304Z,is
2017-05-11T10:41:20.000Z,28.20
2017-05-11T10:42:14.921Z,27.80
2017-05-11T10:43:16.626Z,27.50
2017-05-11T10:44:16.274Z,27.00
2017-05-11T10:45:14.708Z,27.30
2017-05-11T10:46:14.463Z,27.10
2017-05-11T10:47:17.053Z,27.10
2017-05-11T10:48:14.309Z,27.30
2017-05-11T10:49:18.655Z,27.40
2017-05-11T10:50:16.459Z,27.00
2017-05-11T10:51:14.806Z,27.70
2017-05-11T10:52:14.505Z,27.30
2017-05-11T10:53:17.705Z,27.40
2017-05-11T10:54:15.236Z,27.40
2017-05-11T10:55:14.660Z,27.50
2017-05-11T10:56:14.461Z,27.60
2017-05-11T10:57:14.412Z,27.60
2017-05-11T10:58:14.509Z,27.80
2017-05-11T10:59:16.252Z,27.40
2017-05-11T11:00:15.773Z,27.40
2017-05-11T11:01:14.693Z,27.70
2017-05-11T11:02:15.921Z,27.40
2017-05-11T11:03:14.547Z,27.60
2017-05-11T11:04:14.599Z,27.50
2017-05-11T11:05:14.739Z,27.50
2017-05-11T11:06:14.660Z,27.80
2017-05-11T11:07:14.341Z,27.60
2017-05-11T11:08:15.432Z,27.50
2017-05-11T11:09:14.376Z,27.30
2017-05-11T11:10:16.157Z,27.40
2017-05-11T11:11:16.088Z,27.00
2017-05-11T11:12:15.237Z,26.90
2017-05-11T11:13:16.545Z,26.60
2017-05-11T11:14:17.999Z,26.80
2017-05-11T11:15:14.717Z,26.80
2017-05-11T11:16:14.712Z,26.80
2017-05-11T11:17:14.527Z,26.70
2017-05-11T11:18:14.635Z,26.70
2017-05-11T11:19:13.946Z,26.80
2017-05-11T11:20:14.221Z,27.10
2017-05-11T11:21:13.403Z,26.80
2017-05-11T11:22:14.693Z,27.00
2017-05-11T11:23:13.858Z,27.30
2017-05-11T11:24:14.270Z,27.60
2017-05-11T11:25:14.766Z,27.50
2017-05-11T11:26:14.228Z,27.30
2017-05-11T11:27:14.052Z,27.80
2017-05-11T11:28:15.130Z,27.60
2017-05-11T11:29:13.752Z,27.70
2017-05-11T11:30:14.217Z,27.70
2017-05-11T11:31:14.023Z,27.50
2017-05-11T11:32:15.737Z,27.70
2017-05-11T11:33:14.386Z,27.60
2017-05-11T11:34:13.818Z,28.10
2017-05-11T11:35:14.875Z,28.40
2017-05-11T11:36:14.481Z,28.40
2017-05-11T11:37:13.873Z,28.50
2017-05-11T11:38:14.201Z,28.40
2017-05-11T11:39:13.511Z,28.50
2017-05-11T11:40:13.681Z,29.00
2017-05-11T11:41:16.451Z,28.60
2017-05-11T11:42:13.705Z,28.70
2017-05-11T11:43:13.571Z,28.70
2017-05-11T11:44:14.010Z,28.90
2017-05-11T11:45:15.281Z,29.20
2017-05-11T11:46:14.006Z,29.50
2017-05-11T11:47:14.168Z,28.80
2017-05-11T11:48:15.098Z,28.40
2017-05-11T11:49:14.743Z,29.30
2017-05-11T11:50:14.758Z,29.20
2017-05-11T11:51:13.706Z,29.20
2017-05-11T11:52:14.030Z,29.40
2017-05-11T11:53:14.273Z,29.40
2017-05-11T11:54:13.512Z,29.20
2017-05-11T11:55:10.325Z,is
2017-05-11T11:56:15.136Z,29.30
2017-05-11T11:57:11.558Z,is
2017-05-11T11:58:14.387Z,29.20
2017-05-11T11:59:14.866Z,29.30
2017-05-11T12:00:11.172Z,is
2017-05-11T12:01:14.783Z,29.80
2017-05-11T12:02:14.812Z,29.90
2017-05-11T12:03:11.963Z,is
2017-05-11T12:04:15.263Z,29.90
2017-05-11T12:05:14.296Z,30.00
2017-05-11T12:06:14.859Z,30.40
2017-05-11T12:07:15.097Z,30.30
2017-05-11T12:08:15.350Z,30.30
2017-05-11T12:09:16.268Z,30.60
2017-05-11T12:10:15.052Z,30.70
2017-05-11T12:11:15.223Z,30.60
2017-05-11T12:12:15.021Z,30.60
2017-05-11T12:13:15.171Z,30.80
2017-05-11T12:14:14.515Z,30.90
2017-05-11T12:15:20.299Z,31.00
2017-05-11T12:16:14.871Z,31.10
2017-05-11T12:17:15.030Z,31.20
2017-05-11T12:18:15.041Z,31.30
2017-05-11T12:19:15.099Z,31.40
2017-05-11T12:20:15.164Z,30.50
2017-05-11T12:21:15.368Z,30.50
2017-05-11T12:22:14.209Z,31.30
2017-05-11T12:23:14.372Z,32.00
2017-05-11T12:24:14.476Z,32.00
2017-05-11T12:25:15.302Z,32.00
2017-05-11T12:26:14.239Z,32.00
2017-05-11T12:27:15.283Z,31.60
2017-05-11T12:28:14.327Z,32.40
2017-05-11T12:29:14.389Z,32.70
2017-05-11T12:30:14.564Z,33.00
2017-05-11T12:31:15.405Z,32.60
2017-05-11T12:32:15.518Z,32.90
2017-05-11T12:33:16.029Z,32.70
2017-05-11T12:34:15.124Z,32.60
2017-05-11T12:35:15.355Z,32.20
2017-05-11T12:36:14.928Z,32.40
2017-05-11T12:37:15.326Z,32.60
2017-05-11T12:38:14.480Z,32.90
2017-05-11T12:39:14.558Z,32.70
2017-05-11T12:40:14.551Z,32.40
2017-05-11T12:41:14.786Z,32.20
2017-05-11T12:42:14.655Z,33.00
2017-05-11T12:43:12.365Z,is
2017-05-11T12:44:14.881Z,33.00
2017-05-11T12:45:15.774Z,32.70
2017-05-11T12:46:14.804Z,32.60
2017-05-11T12:47:15.084Z,32.30
2017-05-11T12:48:14.477Z,32.30
2017-05-11T12:49:14.526Z,32.30
2017-05-11T12:50:15.475Z,32.30
2017-05-11T12:51:15.673Z,32.30
2017-05-11T12:52:14.127Z,31.90
2017-05-11T12:53:14.491Z,31.90
2017-05-11T12:54:14.621Z,31.90
2017-05-11T12:55:11.180Z,is
2017-05-11T12:56:15.345Z,30.90
2017-05-11T12:57:14.946Z,31.70
2017-05-11T12:58:15.103Z,31.70
2017-05-11T12:59:15.530Z,31.90
2017-05-11T13:00:14.692Z,31.80
2017-05-11T13:01:15.101Z,31.80
2017-05-11T13:02:14.959Z,31.80
2017-05-11T13:03:14.847Z,32.20
2017-05-11T13:04:14.779Z,32.20
2017-05-11T13:05:15.282Z,32.00
2017-05-11T13:06:14.520Z,31.80
2017-05-11T13:07:14.824Z,31.70
2017-05-11T13:08:16.521Z,32.10
2017-05-11T13:09:14.488Z,33.10
2017-05-11T13:10:15.138Z,33.10
2017-05-11T13:11:14.695Z,32.70
2017-05-11T13:12:14.999Z,31.70
2017-05-11T13:13:13.990Z,32.00
2017-05-11T13:14:15.594Z,32.50
2017-05-11T13:15:14.921Z,32.10
2017-05-11T13:16:15.803Z,31.70
2017-05-11T13:17:14.818Z,32.20
2017-05-11T13:18:15.586Z,32.30
2017-05-11T13:19:14.654Z,32.20
2017-05-11T13:20:15.680Z,32.50
2017-05-11T13:21:14.851Z,32.50
2017-05-11T13:22:14.855Z,32.30
2017-05-11T13:23:14.792Z,33.10
2017-05-11T13:24:15.565Z,33.60
2017-05-11T13:25:15.619Z,33.70
2017-05-11T13:26:14.520Z,33.20
2017-05-11T13:27:14.471Z,33.10
2017-05-11T13:28:14.878Z,32.50
2017-05-11T13:29:12.258Z,is
2017-05-11T13:30:14.948Z,32.30
2017-05-11T13:31:14.422Z,32.10
2017-05-11T13:32:12.047Z,is
2017-05-11T13:33:14.353Z,32.10
2017-05-11T13:34:14.407Z,31.80
2017-05-11T13:35:14.409Z,31.90
2017-05-11T13:36:14.523Z,31.30
2017-05-11T13:37:14.478Z,32.00
2017-05-11T13:38:15.003Z,31.80
2017-05-11T13:39:14.925Z,32.00
2017-05-11T13:40:14.894Z,32.10
2017-05-11T13:41:14.993Z,31.80
2017-05-11T13:42:15.726Z,31.70
2017-05-11T13:43:14.655Z,31.50
2017-05-11T13:44:14.711Z,31.40
2017-05-11T13:45:14.578Z,31.50
2017-05-11T13:46:14.985Z,31.40
2017-05-11T13:47:14.889Z,31.40
2017-05-11T13:48:15.015Z,31.50
2017-05-11T13:49:15.394Z,31.00
2017-05-11T13:50:14.702Z,31.10
2017-05-11T13:51:14.671Z,31.20
2017-05-11T13:52:15.245Z,31.10
2017-05-11T13:53:14.143Z,31.10
2017-05-11T13:54:14.511Z,31.10
2017-05-11T13:55:14.752Z,30.70
2017-05-11T13:56:14.895Z,30.70
2017-05-11T13:57:14.873Z,30.80
2017-05-11T13:58:15.176Z,29.70
2017-05-11T13:59:14.205Z,30.70
2017-05-11T14:00:14.389Z,30.60
2017-05-11T14:01:14.705Z,30.80
2017-05-11T14:02:16.005Z,30.70
2017-05-11T14:03:15.060Z,30.60
2017-05-11T14:04:14.958Z,30.90
2017-05-11T14:05:16.532Z,31.00
2017-05-11T14:06:14.727Z,31.00
2017-05-11T14:07:15.360Z,31.10
2017-05-11T14:08:14.622Z,31.90
2017-05-11T14:09:16.798Z,31.80
2017-05-11T14:10:15.943Z,32.20
2017-05-11T14:11:11.539Z,is
2017-05-11T14:12:14.794Z,31.30
2017-05-11T14:13:11.008Z,is
2017-05-11T14:14:15.216Z,31.80
2017-05-11T14:15:14.953Z,32.00
2017-05-11T14:16:15.286Z,32.20
2017-05-11T14:17:14.927Z,32.20
2017-05-11T14:18:14.953Z,32.40
2017-05-11T14:19:15.906Z,32.10
2017-05-11T14:20:15.588Z,32.30
2017-05-11T14:21:15.318Z,32.40
2017-05-11T14:22:14.228Z,32.40
2017-05-11T14:23:17.315Z,32.50
2017-05-11T14:24:14.175Z,32.40
2017-05-11T14:25:14.408Z,32.50
2017-05-11T14:26:14.253Z,32.50
2017-05-11T14:27:14.297Z,32.60
2017-05-11T14:28:13.486Z,32.70
2017-05-11T14:29:11.876Z,is
2017-05-11T14:30:10.639Z,is
2017-05-11T14:31:15.095Z,32.80
2017-05-11T14:32:15.452Z,32.60
2017-05-11T14:33:15.029Z,32.70
2017-05-11T14:34:15.087Z,32.70
2017-05-11T14:35:20.972Z,32.70
2017-05-11T14:36:15.032Z,32.30
2017-05-11T14:37:15.053Z,32.70
2017-05-11T14:38:14.957Z,32.80
2017-05-11T14:39:15.141Z,32.80
2017-05-11T14:40:15.318Z,33.20
2017-05-11T14:41:14.938Z,33.00
2017-05-11T14:42:15.627Z,32.90
2017-05-11T14:43:14.862Z,32.90
2017-05-11T14:44:16.831Z,33.00
2017-05-11T14:45:15.098Z,33.00
2017-05-11T14:46:15.284Z,33.00
2017-05-11T14:47:14.904Z,33.00
2017-05-11T14:48:14.979Z,33.10
2017-05-11T14:49:14.979Z,33.00
2017-05-11T14:50:16.831Z,33.00
2017-05-11T14:51:15.489Z,33.00
2017-05-11T14:52:14.275Z,32.90
2017-05-11T14:53:14.386Z,33.00
2017-05-11T14:54:15.146Z,33.00
2017-05-11T14:55:10.522Z,is
2017-05-11T14:56:15.240Z,33.30
2017-05-11T14:57:15.273Z,33.20
2017-05-11T14:58:14.851Z,33.70
2017-05-11T14:59:15.883Z,33.30
2017-05-11T15:00:14.746Z,33.40
2017-05-11T15:01:14.749Z,33.40
2017-05-11T15:02:15.590Z,33.50
2017-05-11T15:03:14.709Z,33.30
2017-05-11T15:04:14.913Z,33.40
2017-05-11T15:05:15.818Z,33.40
2017-05-11T15:06:15.788Z,33.40
2017-05-11T15:07:15.669Z,33.60
2017-05-11T15:08:16.275Z,33.50
2017-05-11T15:09:14.308Z,33.70
2017-05-11T15:10:15.142Z,33.70
2017-05-11T15:11:15.067Z,33.80
2017-05-11T15:12:14.539Z,33.80
2017-05-11T15:13:14.710Z,33.80
2017-05-11T15:14:15.270Z,33.80
2017-05-11T15:15:14.818Z,33.70
2017-05-11T15:16:14.973Z,33.80
2017-05-11T15:17:16.337Z,33.90
2017-05-11T15:18:14.704Z,34.10
2017-05-11T15:19:14.616Z,34.00
2017-05-11T15:20:14.718Z,34.70
2017-05-11T15:21:16.691Z,34.10
2017-05-11T15:22:15.234Z,34.70
2017-05-11T15:23:14.506Z,34.50
2017-05-11T15:24:15.890Z,34.60
2017-05-11T15:25:14.845Z,34.50
2017-05-11T15:26:15.018Z,34.50
2017-05-11T15:27:12.432Z,is
2017-05-11T15:28:14.911Z,34.40
2017-05-11T15:29:15.115Z,34.90
2017-05-11T15:30:15.035Z,35.20
2017-05-11T15:31:14.248Z,34.90
2017-05-11T15:32:14.403Z,34.80
2017-05-11T15:33:14.223Z,34.80
2017-05-11T15:34:15.085Z,34.90
2017-05-11T15:35:15.158Z,35.00
2017-05-11T15:36:15.223Z,35.30
2017-05-11T15:37:14.481Z,35.40
2017-05-11T15:38:14.621Z,35.50
2017-05-11T15:39:14.627Z,35.60
2017-05-11T15:40:15.412Z,35.70
2017-05-11T15:41:14.532Z,34.80
2017-05-11T15:42:14.771Z,35.60
2017-05-11T15:43:15.239Z,35.80
2017-05-11T15:44:14.423Z,35.80
2017-05-11T15:45:14.831Z,35.90
2017-05-11T15:46:14.986Z,36.00
2017-05-11T15:47:12.628Z,is
2017-05-11T15:48:09.779Z,is
2017-05-11T15:49:15.338Z,36.30
2017-05-11T15:50:15.753Z,36.40
2017-05-11T15:51:14.963Z,36.30
2017-05-11T15:52:15.120Z,36.20
2017-05-11T15:53:14.929Z,36.30
2017-05-11T15:54:15.430Z,36.30
2017-05-11T15:55:14.928Z,36.20
2017-05-11T15:56:14.761Z,36.20
2017-05-11T15:57:14.623Z,36.20
2017-05-11T15:58:15.457Z,36.20
2017-05-11T15:59:14.832Z,36.20
2017-05-11T16:00:15.047Z,36.20
2017-05-11T16:01:15.625Z,36.20
2017-05-11T16:02:14.830Z,36.10
2017-05-11T16:03:14.991Z,36.10
2017-05-11T16:04:15.039Z,36.10
2017-05-11T16:05:14.845Z,36.20
2017-05-11T16:06:15.167Z,36.10
2017-05-11T16:07:15.388Z,36.10
2017-05-11T16:08:15.096Z,36.10
2017-05-11T16:09:16.631Z,35.20
2017-05-11T16:10:15.869Z,36.10
2017-05-11T16:11:15.359Z,36.10
2017-05-11T16:12:14.935Z,36.20
2017-05-11T16:13:16.264Z,36.20
2017-05-11T16:14:14.475Z,36.40
2017-05-11T16:15:16.069Z,36.40
2017-05-11T16:16:15.760Z,36.50
2017-05-11T16:17:15.190Z,36.50
2017-05-11T16:18:14.383Z,36.60
2017-05-11T16:19:14.898Z,36.80
2017-05-11T16:20:15.492Z,37.00
2017-05-11T16:21:13.040Z,is
2017-05-11T16:22:14.619Z,36.80
2017-05-11T16:23:15.004Z,36.70
2017-05-11T16:24:15.118Z,36.90
2017-05-11T16:25:11.978Z,is
2017-05-11T16:26:15.858Z,36.90
2017-05-11T16:27:12.498Z,is
2017-05-11T16:28:15.994Z,37.00
2017-05-11T16:29:15.155Z,37.00
2017-05-11T16:30:15.365Z,36.90
2017-05-11T16:31:14.291Z,36.90
2017-05-11T16:32:14.563Z,37.10
2017-05-11T16:33:14.735Z,37.10
2017-05-11T16:34:14.765Z,37.20
2017-05-11T16:35:16.356Z,37.20
2017-05-11T16:36:14.495Z,37.00
2017-05-11T16:37:10.899Z,is
2017-05-11T16:38:15.304Z,37.20
2017-05-11T16:39:14.466Z,37.30
2017-05-11T16:40:14.529Z,37.40
2017-05-11T16:41:15.206Z,37.40
2017-05-11T16:42:14.137Z,37.30
2017-05-11T16:43:15.518Z,37.30
2017-05-11T16:44:10.623Z,is
2017-05-11T16:45:14.375Z,37.40
2017-05-11T16:46:14.546Z,37.60
2017-05-11T16:47:15.198Z,37.70
2017-05-11T16:48:14.796Z,37.60
2017-05-11T16:49:15.459Z,37.50
2017-05-11T16:50:15.288Z,37.60
2017-05-11T16:51:15.233Z,37.60
2017-05-11T16:52:14.475Z,37.50
2017-05-11T16:53:15.087Z,37.70
2017-05-11T16:54:15.054Z,37.80
2017-05-11T16:55:15.177Z,37.60
2017-05-11T16:56:14.557Z,37.70
2017-05-11T16:57:14.755Z,37.60
2017-05-11T16:58:11.959Z,is
2017-05-11T16:59:14.626Z,37.70
2017-05-11T17:00:14.738Z,37.70
2017-05-11T17:01:14.904Z,37.70
2017-05-11T17:02:14.758Z,37.60
2017-05-11T17:03:14.745Z,37.70
2017-05-11T17:04:14.742Z,37.80
2017-05-11T17:05:15.391Z,37.80
2017-05-11T17:06:16.190Z,37.70
2017-05-11T17:07:14.284Z,38.00
2017-05-11T17:08:11.487Z,is
2017-05-11T17:09:15.225Z,36.50
2017-05-11T17:10:15.470Z,35.50
2017-05-11T17:11:14.705Z,36.30
2017-05-11T17:12:14.682Z,35.50
2017-05-11T17:13:14.857Z,35.50
2017-05-11T17:14:13.989Z,35.00
2017-05-11T17:15:15.012Z,35.50
2017-05-11T17:16:15.304Z,34.40
2017-05-11T17:17:15.181Z,34.00
2017-05-11T17:18:14.654Z,34.20
2017-05-11T17:19:15.689Z,34.70
2017-05-11T17:20:15.370Z,34.40
2017-05-11T17:21:14.601Z,34.70
2017-05-11T17:22:14.998Z,34.40
2017-05-11T17:23:15.863Z,34.40
2017-05-11T17:24:15.478Z,34.10
2017-05-11T17:25:14.522Z,34.40
2017-05-11T17:26:14.820Z,34.40
2017-05-11T17:27:14.886Z,34.90
2017-05-11T17:28:15.052Z,34.60
2017-05-11T17:29:14.967Z,34.70
2017-05-11T17:30:15.347Z,34.80
2017-05-11T17:31:14.462Z,34.90
2017-05-11T17:32:14.475Z,35.20
2017-05-11T17:33:14.221Z,35.20
2017-05-11T17:34:14.662Z,35.30
2017-05-11T17:35:15.002Z,35.30
2017-05-11T17:36:14.246Z,35.20
2017-05-11T17:37:14.375Z,35.20